sensor_id;sensor_type;location;lat;lon;timestamp;P1;durP1;ratioP1;P2;durP2;ratioP2
75593;SDS011;64176;49.156;7.810;2024-01-25T00:01:47;10.52;;;2.13;;
75593;SDS011;64176;49.156;7.810;2024-01-25T00:04:31;17.83;;;3.63;;
75593;SDS011;64176;49.156;7.810;2024-01-25T00:07:15;13.57;;;2.63;;
75593;SDS011;64176;49.156;7.810;2024-01-25T00:10:01;10.70;;;2.95;;
75593;SDS011;64176;49.156;7.810;2024-01-25T00:12:46;17.13;;;2.60;;
75593;SDS011;64176;49.156;7.810;2024-01-25T00:15:30;18.38;;;2.63;;
75593;SDS011;64176;49.156;7.810;2024-01-25T00:18:16;16.92;;;3.08;;
75593;SDS011;64176;49.156;7.810;2024-01-25T00:21:03;21.20;;;2.83;;
75593;SDS011;64176;49.156;7.810;2024-01-25T00:23:49;14.23;;;2.65;;
75593;SDS011;64176;49.156;7.810;2024-01-25T00:26:36;17.27;;;2.85;;
75593;SDS011;64176;49.156;7.810;2024-01-25T00:29:22;18.25;;;3.20;;
75593;SDS011;64176;49.156;7.810;2024-01-25T00:32:06;12.93;;;2.60;;
75593;SDS011;64176;49.156;7.810;2024-01-25T00:34:50;14.82;;;2.70;;
75593;SDS011;64176;49.156;7.810;2024-01-25T00:37:37;13.35;;;2.20;;
75593;SDS011;64176;49.156;7.810;2024-01-25T00:40:21;9.48;;;2.75;;
75593;SDS011;64176;49.156;7.810;2024-01-25T00:43:06;16.10;;;3.15;;
75593;SDS011;64176;49.156;7.810;2024-01-25T00:45:52;16.50;;;4.00;;
75593;SDS011;64176;49.156;7.810;2024-01-25T00:48:37;12.52;;;3.15;;
75593;SDS011;64176;49.156;7.810;2024-01-25T00:51:23;15.88;;;2.47;;
75593;SDS011;64176;49.156;7.810;2024-01-25T00:54:08;17.15;;;3.15;;
75593;SDS011;64176;49.156;7.810;2024-01-25T00:56:53;15.30;;;2.90;;
75593;SDS011;64176;49.156;7.810;2024-01-25T00:59:39;12.80;;;2.78;;
75593;SDS011;64176;49.156;7.810;2024-01-25T01:02:33;14.45;;;3.13;;
75593;SDS011;64176;49.156;7.810;2024-01-25T01:05:19;15.02;;;3.65;;
75593;SDS011;64176;49.156;7.810;2024-01-25T01:08:04;12.57;;;3.45;;
75593;SDS011;64176;49.156;7.810;2024-01-25T01:10:48;12.93;;;3.45;;
75593;SDS011;64176;49.156;7.810;2024-01-25T01:13:32;19.55;;;3.45;;
75593;SDS011;64176;49.156;7.810;2024-01-25T01:16:16;12.18;;;2.95;;
75593;SDS011;64176;49.156;7.810;2024-01-25T01:19:06;12.77;;;2.97;;
75593;SDS011;64176;49.156;7.810;2024-01-25T01:24:37;16.55;;;2.67;;
75593;SDS011;64176;49.156;7.810;2024-01-25T01:27:21;15.90;;;2.95;;
75593;SDS011;64176;49.156;7.810;2024-01-25T01:30:06;19.67;;;5.57;;
75593;SDS011;64176;49.156;7.810;2024-01-25T01:32:54;13.27;;;2.78;;
75593;SDS011;64176;49.156;7.810;2024-01-25T01:35:38;11.18;;;3.50;;
75593;SDS011;64176;49.156;7.810;2024-01-25T01:38:27;13.65;;;3.13;;
75593;SDS011;64176;49.156;7.810;2024-01-25T01:41:13;17.27;;;3.63;;
75593;SDS011;64176;49.156;7.810;2024-01-25T01:43:57;14.38;;;2.38;;
75593;SDS011;64176;49.156;7.810;2024-01-25T01:46:45;14.35;;;3.53;;
75593;SDS011;64176;49.156;7.810;2024-01-25T01:49:31;12.48;;;3.20;;
75593;SDS011;64176;49.156;7.810;2024-01-25T01:52:18;14.57;;;2.42;;
75593;SDS011;64176;49.156;7.810;2024-01-25T01:55:02;8.38;;;2.30;;
75593;SDS011;64176;49.156;7.810;2024-01-25T01:57:49;23.05;;;3.75;;
75593;SDS011;64176;49.156;7.810;2024-01-25T02:00:34;16.23;;;2.47;;
75593;SDS011;64176;49.156;7.810;2024-01-25T02:03:20;16.15;;;2.42;;
75593;SDS011;64176;49.156;7.810;2024-01-25T02:06:04;13.95;;;2.13;;
75593;SDS011;64176;49.156;7.810;2024-01-25T02:08:50;12.85;;;3.75;;
75593;SDS011;64176;49.156;7.810;2024-01-25T02:11:37;10.57;;;2.85;;
75593;SDS011;64176;49.156;7.810;2024-01-25T02:14:23;19.27;;;3.20;;
75593;SDS011;64176;49.156;7.810;2024-01-25T02:17:10;16.75;;;2.95;;
75593;SDS011;64176;49.156;7.810;2024-01-25T02:19:54;10.82;;;3.38;;
75593;SDS011;64176;49.156;7.810;2024-01-25T02:22:41;15.20;;;3.55;;
75593;SDS011;64176;49.156;7.810;2024-01-25T02:25:30;15.45;;;2.67;;
75593;SDS011;64176;49.156;7.810;2024-01-25T02:28:14;13.15;;;2.78;;
75593;SDS011;64176;49.156;7.810;2024-01-25T02:31:00;13.43;;;2.67;;
75593;SDS011;64176;49.156;7.810;2024-01-25T02:33:48;15.13;;;2.80;;
75593;SDS011;64176;49.156;7.810;2024-01-25T02:36:31;18.67;;;4.43;;
75593;SDS011;64176;49.156;7.810;2024-01-25T02:39:18;14.98;;;3.53;;
75593;SDS011;64176;49.156;7.810;2024-01-25T02:42:07;15.07;;;3.45;;
75593;SDS011;64176;49.156;7.810;2024-01-25T02:44:54;19.02;;;3.97;;
75593;SDS011;64176;49.156;7.810;2024-01-25T02:47:40;19.73;;;3.45;;
75593;SDS011;64176;49.156;7.810;2024-01-25T02:50:27;14.88;;;2.67;;
75593;SDS011;64176;49.156;7.810;2024-01-25T02:53:13;19.15;;;3.08;;
75593;SDS011;64176;49.156;7.810;2024-01-25T02:55:59;18.15;;;3.75;;
75593;SDS011;64176;49.156;7.810;2024-01-25T02:58:43;11.07;;;3.40;;
75593;SDS011;64176;49.156;7.810;2024-01-25T03:01:43;17.88;;;4.30;;
75593;SDS011;64176;49.156;7.810;2024-01-25T03:04:30;10.88;;;2.60;;
75593;SDS011;64176;49.156;7.810;2024-01-25T03:07:16;12.63;;;2.42;;
75593;SDS011;64176;49.156;7.810;2024-01-25T03:10:01;14.88;;;2.95;;
75593;SDS011;64176;49.156;7.810;2024-01-25T03:12:45;11.60;;;2.53;;
75593;SDS011;64176;49.156;7.810;2024-01-25T03:15:31;14.60;;;2.85;;
75593;SDS011;64176;49.156;7.810;2024-01-25T03:18:18;12.10;;;2.65;;
75593;SDS011;64176;49.156;7.810;2024-01-25T03:21:05;15.23;;;2.53;;
75593;SDS011;64176;49.156;7.810;2024-01-25T03:23:49;14.70;;;3.05;;
75593;SDS011;64176;49.156;7.810;2024-01-25T03:26:33;24.90;;;2.95;;
75593;SDS011;64176;49.156;7.810;2024-01-25T03:29:22;16.08;;;3.30;;
75593;SDS011;64176;49.156;7.810;2024-01-25T03:32:06;15.85;;;3.67;;
75593;SDS011;64176;49.156;7.810;2024-01-25T03:34:52;12.30;;;2.50;;
75593;SDS011;64176;49.156;7.810;2024-01-25T03:37:44;12.77;;;3.13;;
75593;SDS011;64176;49.156;7.810;2024-01-25T03:40:28;17.00;;;3.78;;
75593;SDS011;64176;49.156;7.810;2024-01-25T03:43:14;20.05;;;4.15;;
75593;SDS011;64176;49.156;7.810;2024-01-25T03:46:03;14.45;;;4.32;;
75593;SDS011;64176;49.156;7.810;2024-01-25T03:48:50;16.33;;;3.63;;
75593;SDS011;64176;49.156;7.810;2024-01-25T03:51:38;12.93;;;3.47;;
75593;SDS011;64176;49.156;7.810;2024-01-25T03:54:22;10.52;;;2.85;;
75593;SDS011;64176;49.156;7.810;2024-01-25T03:57:06;16.60;;;2.42;;
75593;SDS011;64176;49.156;7.810;2024-01-25T03:59:50;11.50;;;3.05;;
75593;SDS011;64176;49.156;7.810;2024-01-25T04:02:39;14.57;;;3.25;;
75593;SDS011;64176;49.156;7.810;2024-01-25T04:05:28;18.90;;;3.40;;
75593;SDS011;64176;49.156;7.810;2024-01-25T04:08:15;14.23;;;2.63;;
75593;SDS011;64176;49.156;7.810;2024-01-25T04:11:02;14.18;;;2.88;;
75593;SDS011;64176;49.156;7.810;2024-01-25T04:13:49;14.63;;;2.75;;
75593;SDS011;64176;49.156;7.810;2024-01-25T04:16:33;12.52;;;2.60;;
75593;SDS011;64176;49.156;7.810;2024-01-25T04:19:19;18.20;;;3.45;;
75593;SDS011;64176;49.156;7.810;2024-01-25T04:22:03;12.80;;;3.35;;
75593;SDS011;64176;49.156;7.810;2024-01-25T04:24:50;12.43;;;2.28;;
75593;SDS011;64176;49.156;7.810;2024-01-25T04:27:34;14.80;;;3.50;;
75593;SDS011;64176;49.156;7.810;2024-01-25T04:30:20;24.10;;;4.80;;
75593;SDS011;64176;49.156;7.810;2024-01-25T04:33:04;19.13;;;3.28;;
75593;SDS011;64176;49.156;7.810;2024-01-25T04:35:48;23.05;;;3.30;;
75593;SDS011;64176;49.156;7.810;2024-01-25T04:38:35;23.42;;;4.38;;
75593;SDS011;64176;49.156;7.810;2024-01-25T04:41:23;15.23;;;5.30;;
75593;SDS011;64176;49.156;7.810;2024-01-25T04:44:07;40.97;;;14.30;;
75593;SDS011;64176;49.156;7.810;2024-01-25T04:46:57;31.77;;;10.95;;
75593;SDS011;64176;49.156;7.810;2024-01-25T04:49:46;31.10;;;10.32;;
75593;SDS011;64176;49.156;7.810;2024-01-25T04:52:29;17.75;;;6.95;;
75593;SDS011;64176;49.156;7.810;2024-01-25T04:55:19;26.42;;;8.40;;
75593;SDS011;64176;49.156;7.810;2024-01-25T04:58:03;32.67;;;10.52;;
75593;SDS011;64176;49.156;7.810;2024-01-25T05:00:47;25.27;;;9.75;;
75593;SDS011;64176;49.156;7.810;2024-01-25T05:03:32;27.73;;;8.27;;
75593;SDS011;64176;49.156;7.810;2024-01-25T05:06:19;24.00;;;10.75;;
75593;SDS011;64176;49.156;7.810;2024-01-25T05:09:03;28.70;;;9.18;;
75593;SDS011;64176;49.156;7.810;2024-01-25T05:11:47;19.58;;;7.57;;
75593;SDS011;64176;49.156;7.810;2024-01-25T05:14:33;20.48;;;7.50;;
75593;SDS011;64176;49.156;7.810;2024-01-25T05:17:17;26.88;;;6.47;;
75593;SDS011;64176;49.156;7.810;2024-01-25T05:20:01;24.38;;;7.55;;
75593;SDS011;64176;49.156;7.810;2024-01-25T05:22:48;18.73;;;4.88;;
75593;SDS011;64176;49.156;7.810;2024-01-25T05:25:32;24.13;;;5.90;;
75593;SDS011;64176;49.156;7.810;2024-01-25T05:31:03;14.10;;;3.90;;
75593;SDS011;64176;49.156;7.810;2024-01-25T05:33:47;20.08;;;5.00;;
75593;SDS011;64176;49.156;7.810;2024-01-25T05:36:34;16.52;;;4.45;;
75593;SDS011;64176;49.156;7.810;2024-01-25T05:39:20;20.50;;;4.68;;
75593;SDS011;64176;49.156;7.810;2024-01-25T05:42:04;16.73;;;4.18;;
75593;SDS011;64176;49.156;7.810;2024-01-25T05:44:48;15.82;;;4.82;;
75593;SDS011;64176;49.156;7.810;2024-01-25T05:47:37;21.23;;;3.70;;
75593;SDS011;64176;49.156;7.810;2024-01-25T05:50:21;16.15;;;5.60;;
75593;SDS011;64176;49.156;7.810;2024-01-25T05:53:07;18.30;;;5.30;;
75593;SDS011;64176;49.156;7.810;2024-01-25T05:55:56;19.73;;;5.22;;
75593;SDS011;64176;49.156;7.810;2024-01-25T05:58:41;18.95;;;6.18;;
75593;SDS011;64176;49.156;7.810;2024-01-25T06:01:25;16.02;;;5.10;;
75593;SDS011;64176;49.156;7.810;2024-01-25T06:04:12;13.13;;;5.15;;
75593;SDS011;64176;49.156;7.810;2024-01-25T06:06:56;10.07;;;4.68;;
75593;SDS011;64176;49.156;7.810;2024-01-25T06:09:40;17.23;;;5.10;;
75593;SDS011;64176;49.156;7.810;2024-01-25T06:12:24;18.85;;;6.60;;
75593;SDS011;64176;49.156;7.810;2024-01-25T06:15:08;18.67;;;7.05;;
75593;SDS011;64176;49.156;7.810;2024-01-25T06:17:52;22.38;;;6.80;;
75593;SDS011;64176;49.156;7.810;2024-01-25T06:20:36;18.20;;;6.25;;
75593;SDS011;64176;49.156;7.810;2024-01-25T06:23:20;19.60;;;8.45;;
75593;SDS011;64176;49.156;7.810;2024-01-25T06:26:04;18.15;;;6.35;;
75593;SDS011;64176;49.156;7.810;2024-01-25T06:28:51;23.65;;;6.45;;
75593;SDS011;64176;49.156;7.810;2024-01-25T06:31:42;20.02;;;6.07;;
75593;SDS011;64176;49.156;7.810;2024-01-25T06:34:27;21.63;;;7.30;;
75593;SDS011;64176;49.156;7.810;2024-01-25T06:37:16;16.08;;;7.57;;
75593;SDS011;64176;49.156;7.810;2024-01-25T06:40:02;18.33;;;5.82;;
75593;SDS011;64176;49.156;7.810;2024-01-25T06:42:53;19.25;;;9.38;;
75593;SDS011;64176;49.156;7.810;2024-01-25T06:45:37;25.23;;;12.90;;
75593;SDS011;64176;49.156;7.810;2024-01-25T06:48:26;21.77;;;10.18;;
75593;SDS011;64176;49.156;7.810;2024-01-25T06:51:13;25.73;;;9.35;;
75593;SDS011;64176;49.156;7.810;2024-01-25T06:53:58;61.30;;;24.40;;
75593;SDS011;64176;49.156;7.810;2024-01-25T06:56:47;84.07;;;34.90;;
75593;SDS011;64176;49.156;7.810;2024-01-25T06:59:35;43.42;;;20.00;;
75593;SDS011;64176;49.156;7.810;2024-01-25T07:02:19;42.15;;;18.35;;
75593;SDS011;64176;49.156;7.810;2024-01-25T07:05:05;37.63;;;18.17;;
75593;SDS011;64176;49.156;7.810;2024-01-25T07:07:50;26.42;;;8.43;;
75593;SDS011;64176;49.156;7.810;2024-01-25T07:10:34;21.67;;;9.65;;
75593;SDS011;64176;49.156;7.810;2024-01-25T07:13:18;29.58;;;12.85;;
75593;SDS011;64176;49.156;7.810;2024-01-25T07:16:05;24.23;;;11.35;;
75593;SDS011;64176;49.156;7.810;2024-01-25T07:18:49;24.25;;;9.73;;
75593;SDS011;64176;49.156;7.810;2024-01-25T07:21:33;18.70;;;8.73;;
75593;SDS011;64176;49.156;7.810;2024-01-25T07:24:17;16.58;;;7.10;;
75593;SDS011;64176;49.156;7.810;2024-01-25T07:27:01;15.63;;;6.18;;
75593;SDS011;64176;49.156;7.810;2024-01-25T07:29:45;24.98;;;7.15;;
75593;SDS011;64176;49.156;7.810;2024-01-25T07:32:32;18.80;;;6.45;;
75593;SDS011;64176;49.156;7.810;2024-01-25T07:35:18;24.80;;;7.53;;
75593;SDS011;64176;49.156;7.810;2024-01-25T07:38:02;11.20;;;5.38;;
75593;SDS011;64176;49.156;7.810;2024-01-25T07:40:46;19.02;;;6.75;;
75593;SDS011;64176;49.156;7.810;2024-01-25T07:43:31;24.15;;;8.93;;
75593;SDS011;64176;49.156;7.810;2024-01-25T07:46:17;39.08;;;15.15;;
75593;SDS011;64176;49.156;7.810;2024-01-25T07:49:01;19.15;;;8.13;;
75593;SDS011;64176;49.156;7.810;2024-01-25T07:51:45;17.67;;;7.53;;
75593;SDS011;64176;49.156;7.810;2024-01-25T07:54:36;31.48;;;12.48;;
75593;SDS011;64176;49.156;7.810;2024-01-25T07:57:20;31.75;;;13.80;;
75593;SDS011;64176;49.156;7.810;2024-01-25T08:00:05;33.42;;;13.80;;
75593;SDS011;64176;49.156;7.810;2024-01-25T08:02:49;25.30;;;12.10;;
75593;SDS011;64176;49.156;7.810;2024-01-25T08:05:33;27.33;;;10.80;;
75593;SDS011;64176;49.156;7.810;2024-01-25T08:08:17;25.50;;;10.05;;
75593;SDS011;64176;49.156;7.810;2024-01-25T08:11:06;21.23;;;9.88;;
75593;SDS011;64176;49.156;7.810;2024-01-25T08:13:55;25.52;;;10.52;;
75593;SDS011;64176;49.156;7.810;2024-01-25T08:16:42;26.75;;;13.32;;
75593;SDS011;64176;49.156;7.810;2024-01-25T08:19:28;26.48;;;12.13;;
75593;SDS011;64176;49.156;7.810;2024-01-25T08:22:15;19.52;;;9.95;;
75593;SDS011;64176;49.156;7.810;2024-01-25T08:25:04;19.27;;;8.63;;
75593;SDS011;64176;49.156;7.810;2024-01-25T08:27:49;32.85;;;13.18;;
75593;SDS011;64176;49.156;7.810;2024-01-25T08:30:35;29.25;;;15.10;;
75593;SDS011;64176;49.156;7.810;2024-01-25T08:33:22;31.17;;;17.63;;
75593;SDS011;64176;49.156;7.810;2024-01-25T08:36:08;22.60;;;11.63;;
75593;SDS011;64176;49.156;7.810;2024-01-25T08:38:52;28.05;;;11.85;;
75593;SDS011;64176;49.156;7.810;2024-01-25T08:41:36;23.92;;;10.32;;
75593;SDS011;64176;49.156;7.810;2024-01-25T08:44:24;21.10;;;9.70;;
75593;SDS011;64176;49.156;7.810;2024-01-25T08:47:08;30.38;;;11.93;;
75593;SDS011;64176;49.156;7.810;2024-01-25T08:49:54;22.42;;;10.93;;
75593;SDS011;64176;49.156;7.810;2024-01-25T08:52:43;22.13;;;9.18;;
75593;SDS011;64176;49.156;7.810;2024-01-25T08:55:34;23.83;;;11.68;;
75593;SDS011;64176;49.156;7.810;2024-01-25T08:58:21;19.55;;;10.57;;
75593;SDS011;64176;49.156;7.810;2024-01-25T09:03:51;27.67;;;11.52;;
75593;SDS011;64176;49.156;7.810;2024-01-25T09:06:40;28.45;;;12.73;;
75593;SDS011;64176;49.156;7.810;2024-01-25T09:09:25;29.15;;;16.10;;
75593;SDS011;64176;49.156;7.810;2024-01-25T09:12:15;33.35;;;18.10;;
75593;SDS011;64176;49.156;7.810;2024-01-25T09:15:03;30.33;;;17.02;;
75593;SDS011;64176;49.156;7.810;2024-01-25T09:17:47;35.15;;;17.92;;
75593;SDS011;64176;49.156;7.810;2024-01-25T09:20:37;28.92;;;14.77;;
75593;SDS011;64176;49.156;7.810;2024-01-25T09:23:24;25.95;;;16.30;;
75593;SDS011;64176;49.156;7.810;2024-01-25T09:26:12;42.58;;;21.42;;
75593;SDS011;64176;49.156;7.810;2024-01-25T09:29:01;31.90;;;18.80;;
75593;SDS011;64176;49.156;7.810;2024-01-25T09:31:45;26.55;;;14.70;;
75593;SDS011;64176;49.156;7.810;2024-01-25T09:34:33;17.42;;;10.20;;
75593;SDS011;64176;49.156;7.810;2024-01-25T09:37:17;20.40;;;6.35;;
75593;SDS011;64176;49.156;7.810;2024-01-25T09:40:06;29.65;;;15.35;;
75593;SDS011;64176;49.156;7.810;2024-01-25T09:43:02;26.20;;;11.02;;
75593;SDS011;64176;49.156;7.810;2024-01-25T09:45:47;27.88;;;13.40;;
75593;SDS011;64176;49.156;7.810;2024-01-25T09:48:42;21.50;;;9.15;;
75593;SDS011;64176;49.156;7.810;2024-01-25T09:51:33;30.98;;;13.90;;
75593;SDS011;64176;49.156;7.810;2024-01-25T09:54:28;16.48;;;6.55;;
75593;SDS011;64176;49.156;7.810;2024-01-25T09:57:35;22.08;;;8.02;;
75593;SDS011;64176;49.156;7.810;2024-01-25T10:00:23;25.13;;;6.13;;
75593;SDS011;64176;49.156;7.810;2024-01-25T10:03:30;20.20;;;8.50;;
75593;SDS011;64176;49.156;7.810;2024-01-25T10:06:15;23.33;;;7.60;;
75593;SDS011;64176;49.156;7.810;2024-01-25T10:09:04;18.90;;;5.82;;
75593;SDS011;64176;49.156;7.810;2024-01-25T10:11:56;18.65;;;5.20;;
75593;SDS011;64176;49.156;7.810;2024-01-25T10:14:45;13.48;;;5.18;;
75593;SDS011;64176;49.156;7.810;2024-01-25T10:17:33;19.20;;;6.13;;
75593;SDS011;64176;49.156;7.810;2024-01-25T10:20:30;21.42;;;4.90;;
75593;SDS011;64176;49.156;7.810;2024-01-25T10:23:18;15.20;;;4.25;;
75593;SDS011;64176;49.156;7.810;2024-01-25T10:26:02;15.27;;;4.32;;
75593;SDS011;64176;49.156;7.810;2024-01-25T10:28:50;16.65;;;4.80;;
75593;SDS011;64176;49.156;7.810;2024-01-25T10:31:42;12.60;;;3.70;;
75593;SDS011;64176;49.156;7.810;2024-01-25T10:37:25;18.38;;;4.50;;
75593;SDS011;64176;49.156;7.810;2024-01-25T10:40:11;19.80;;;4.93;;
75593;SDS011;64176;49.156;7.810;2024-01-25T10:43:01;20.02;;;4.78;;
75593;SDS011;64176;49.156;7.810;2024-01-25T10:45:45;23.55;;;5.10;;
75593;SDS011;64176;49.156;7.810;2024-01-25T10:48:33;15.50;;;4.53;;
75593;SDS011;64176;49.156;7.810;2024-01-25T10:51:20;18.88;;;4.30;;
75593;SDS011;64176;49.156;7.810;2024-01-25T10:54:14;14.95;;;4.53;;
75593;SDS011;64176;49.156;7.810;2024-01-25T10:57:08;13.85;;;4.90;;
75593;SDS011;64176;49.156;7.810;2024-01-25T11:00:00;16.50;;;4.55;;
75593;SDS011;64176;49.156;7.810;2024-01-25T11:02:58;20.30;;;4.35;;
75593;SDS011;64176;49.156;7.810;2024-01-25T11:05:52;13.55;;;3.50;;
75593;SDS011;64176;49.156;7.810;2024-01-25T11:08:41;12.27;;;3.38;;
75593;SDS011;64176;49.156;7.810;2024-01-25T11:11:25;12.40;;;3.53;;
75593;SDS011;64176;49.156;7.810;2024-01-25T11:14:16;19.48;;;4.93;;
75593;SDS011;64176;49.156;7.810;2024-01-25T11:17:18;13.63;;;3.53;;
75593;SDS011;64176;49.156;7.810;2024-01-25T11:20:13;15.68;;;3.63;;
75593;SDS011;64176;49.156;7.810;2024-01-25T11:23:01;12.70;;;3.05;;
75593;SDS011;64176;49.156;7.810;2024-01-25T11:25:54;16.67;;;3.40;;
75593;SDS011;64176;49.156;7.810;2024-01-25T11:28:41;11.38;;;2.40;;
75593;SDS011;64176;49.156;7.810;2024-01-25T11:31:30;7.80;;;2.65;;
75593;SDS011;64176;49.156;7.810;2024-01-25T11:34:20;7.93;;;2.47;;
75593;SDS011;64176;49.156;7.810;2024-01-25T11:37:05;12.57;;;3.50;;
75593;SDS011;64176;49.156;7.810;2024-01-25T11:39:52;18.38;;;3.83;;
75593;SDS011;64176;49.156;7.810;2024-01-25T11:42:38;12.57;;;2.88;;
75593;SDS011;64176;49.156;7.810;2024-01-25T11:45:23;15.82;;;2.78;;
75593;SDS011;64176;49.156;7.810;2024-01-25T11:48:08;10.10;;;2.58;;
75593;SDS011;64176;49.156;7.810;2024-01-25T11:50:55;7.85;;;2.20;;
75593;SDS011;64176;49.156;7.810;2024-01-25T11:53:42;10.63;;;2.65;;
75593;SDS011;64176;49.156;7.810;2024-01-25T11:56:28;7.53;;;2.20;;
75593;SDS011;64176;49.156;7.810;2024-01-25T11:59:14;12.07;;;2.85;;
75593;SDS011;64176;49.156;7.810;2024-01-25T12:01:58;8.85;;;2.53;;
75593;SDS011;64176;49.156;7.810;2024-01-25T12:04:46;14.82;;;2.28;;
75593;SDS011;64176;49.156;7.810;2024-01-25T12:07:31;10.23;;;2.17;;
75593;SDS011;64176;49.156;7.810;2024-01-25T12:10:16;11.15;;;2.10;;
75593;SDS011;64176;49.156;7.810;2024-01-25T12:13:07;14.63;;;2.20;;
75593;SDS011;64176;49.156;7.810;2024-01-25T12:15:52;15.80;;;3.25;;
75593;SDS011;64176;49.156;7.810;2024-01-25T12:18:40;8.10;;;2.90;;
75593;SDS011;64176;49.156;7.810;2024-01-25T12:21:28;14.43;;;2.67;;
75593;SDS011;64176;49.156;7.810;2024-01-25T12:24:12;10.45;;;1.95;;
75593;SDS011;64176;49.156;7.810;2024-01-25T12:27:01;10.75;;;2.80;;
75593;SDS011;64176;49.156;7.810;2024-01-25T12:29:46;12.30;;;2.97;;
75593;SDS011;64176;49.156;7.810;2024-01-25T12:32:30;12.23;;;3.25;;
75593;SDS011;64176;49.156;7.810;2024-01-25T12:35:14;10.32;;;2.65;;
75593;SDS011;64176;49.156;7.810;2024-01-25T12:37:58;11.15;;;2.28;;
75593;SDS011;64176;49.156;7.810;2024-01-25T12:40:46;10.88;;;2.50;;
75593;SDS011;64176;49.156;7.810;2024-01-25T12:43:31;13.00;;;2.63;;
75593;SDS011;64176;49.156;7.810;2024-01-25T12:46:18;6.03;;;2.83;;
75593;SDS011;64176;49.156;7.810;2024-01-25T12:49:05;9.15;;;2.60;;
75593;SDS011;64176;49.156;7.810;2024-01-25T12:51:49;13.20;;;2.33;;
75593;SDS011;64176;49.156;7.810;2024-01-25T12:54:36;13.27;;;4.32;;
75593;SDS011;64176;49.156;7.810;2024-01-25T12:57:23;14.55;;;2.90;;
75593;SDS011;64176;49.156;7.810;2024-01-25T13:00:09;12.07;;;2.45;;
75593;SDS011;64176;49.156;7.810;2024-01-25T13:02:53;8.77;;;2.30;;
75593;SDS011;64176;49.156;7.810;2024-01-25T13:06:00;11.40;;;2.88;;
75593;SDS011;64176;49.156;7.810;2024-01-25T13:08:46;11.27;;;3.10;;
75593;SDS011;64176;49.156;7.810;2024-01-25T13:11:34;9.27;;;2.45;;
75593;SDS011;64176;49.156;7.810;2024-01-25T13:14:22;9.38;;;2.65;;
75593;SDS011;64176;49.156;7.810;2024-01-25T13:17:06;11.10;;;2.70;;
75593;SDS011;64176;49.156;7.810;2024-01-25T13:19:51;12.85;;;2.75;;
75593;SDS011;64176;49.156;7.810;2024-01-25T13:22:38;12.88;;;3.70;;
75593;SDS011;64176;49.156;7.810;2024-01-25T13:25:22;10.05;;;2.33;;
75593;SDS011;64176;49.156;7.810;2024-01-25T13:28:06;13.07;;;2.47;;
75593;SDS011;64176;49.156;7.810;2024-01-25T13:30:52;11.45;;;2.35;;
75593;SDS011;64176;49.156;7.810;2024-01-25T13:33:39;13.73;;;3.13;;
75593;SDS011;64176;49.156;7.810;2024-01-25T13:36:26;10.65;;;2.42;;
75593;SDS011;64176;49.156;7.810;2024-01-25T13:39:10;13.45;;;3.38;;
75593;SDS011;64176;49.156;7.810;2024-01-25T13:41:56;9.13;;;2.50;;
75593;SDS011;64176;49.156;7.810;2024-01-25T13:44:43;12.98;;;2.97;;
75593;SDS011;64176;49.156;7.810;2024-01-25T13:47:29;8.55;;;2.38;;
75593;SDS011;64176;49.156;7.810;2024-01-25T13:50:16;11.00;;;2.83;;
75593;SDS011;64176;49.156;7.810;2024-01-25T13:52:59;13.45;;;2.63;;
75593;SDS011;64176;49.156;7.810;2024-01-25T13:55:44;14.07;;;3.40;;
75593;SDS011;64176;49.156;7.810;2024-01-25T13:58:28;11.85;;;2.33;;
75593;SDS011;64176;49.156;7.810;2024-01-25T14:01:14;14.48;;;3.90;;
75593;SDS011;64176;49.156;7.810;2024-01-25T14:04:04;17.27;;;4.20;;
75593;SDS011;64176;49.156;7.810;2024-01-25T14:06:48;16.60;;;5.70;;
75593;SDS011;64176;49.156;7.810;2024-01-25T14:09:34;8.68;;;3.80;;
75593;SDS011;64176;49.156;7.810;2024-01-25T14:12:19;12.50;;;3.33;;
75593;SDS011;64176;49.156;7.810;2024-01-25T14:15:03;9.77;;;2.92;;
75593;SDS011;64176;49.156;7.810;2024-01-25T14:17:48;9.50;;;3.30;;
75593;SDS011;64176;49.156;7.810;2024-01-25T14:20:34;9.77;;;4.15;;
75593;SDS011;64176;49.156;7.810;2024-01-25T14:23:20;10.27;;;3.53;;
75593;SDS011;64176;49.156;7.810;2024-01-25T14:26:04;9.07;;;1.98;;
75593;SDS011;64176;49.156;7.810;2024-01-25T14:28:54;9.05;;;2.63;;
75593;SDS011;64176;49.156;7.810;2024-01-25T14:31:37;11.07;;;2.28;;
75593;SDS011;64176;49.156;7.810;2024-01-25T14:34:24;10.13;;;2.60;;
75593;SDS011;64176;49.156;7.810;2024-01-25T14:37:08;10.60;;;2.65;;
75593;SDS011;64176;49.156;7.810;2024-01-25T14:39:52;12.90;;;3.42;;
75593;SDS011;64176;49.156;7.810;2024-01-25T14:42:36;11.35;;;3.47;;
75593;SDS011;64176;49.156;7.810;2024-01-25T14:45:24;8.60;;;3.47;;
75593;SDS011;64176;49.156;7.810;2024-01-25T14:48:10;11.88;;;2.60;;
75593;SDS011;64176;49.156;7.810;2024-01-25T14:50:57;8.30;;;2.33;;
75593;SDS011;64176;49.156;7.810;2024-01-25T14:53:41;5.70;;;2.80;;
75593;SDS011;64176;49.156;7.810;2024-01-25T14:56:26;6.22;;;2.35;;
75593;SDS011;64176;49.156;7.810;2024-01-25T14:59:10;3.67;;;1.77;;
75593;SDS011;64176;49.156;7.810;2024-01-25T15:01:54;5.22;;;1.60;;
75593;SDS011;64176;49.156;7.810;2024-01-25T15:04:38;7.35;;;6.13;;
75593;SDS011;64176;49.156;7.810;2024-01-25T15:07:22;9.40;;;2.13;;
75593;SDS011;64176;49.156;7.810;2024-01-25T15:10:08;5.35;;;1.50;;
75593;SDS011;64176;49.156;7.810;2024-01-25T15:12:58;9.45;;;3.15;;
75593;SDS011;64176;49.156;7.810;2024-01-25T15:15:45;3.85;;;2.38;;
75593;SDS011;64176;49.156;7.810;2024-01-25T15:18:31;5.25;;;1.50;;
75593;SDS011;64176;49.156;7.810;2024-01-25T15:21:18;6.93;;;2.22;;
75593;SDS011;64176;49.156;7.810;2024-01-25T15:24:04;6.90;;;1.40;;
75593;SDS011;64176;49.156;7.810;2024-01-25T15:26:49;5.60;;;2.10;;
75593;SDS011;64176;49.156;7.810;2024-01-25T15:29:37;5.63;;;3.10;;
75593;SDS011;64176;49.156;7.810;2024-01-25T15:32:25;5.90;;;2.05;;
75593;SDS011;64176;49.156;7.810;2024-01-25T15:35:12;5.70;;;2.03;;
75593;SDS011;64176;49.156;7.810;2024-01-25T15:37:59;6.90;;;2.50;;
75593;SDS011;64176;49.156;7.810;2024-01-25T15:40:49;4.53;;;2.30;;
75593;SDS011;64176;49.156;7.810;2024-01-25T15:43:34;5.93;;;1.92;;
75593;SDS011;64176;49.156;7.810;2024-01-25T15:46:18;8.27;;;2.58;;
75593;SDS011;64176;49.156;7.810;2024-01-25T15:49:02;3.45;;;1.95;;
75593;SDS011;64176;49.156;7.810;2024-01-25T15:51:49;7.65;;;2.40;;
75593;SDS011;64176;49.156;7.810;2024-01-25T15:54:33;6.07;;;2.90;;
75593;SDS011;64176;49.156;7.810;2024-01-25T15:57:17;10.73;;;4.15;;
75593;SDS011;64176;49.156;7.810;2024-01-25T16:00:01;6.25;;;4.25;;
75593;SDS011;64176;49.156;7.810;2024-01-25T16:02:47;5.90;;;3.00;;
75593;SDS011;64176;49.156;7.810;2024-01-25T16:05:31;8.20;;;4.55;;
75593;SDS011;64176;49.156;7.810;2024-01-25T16:08:20;9.93;;;4.38;;
75593;SDS011;64176;49.156;7.810;2024-01-25T16:11:05;10.57;;;5.70;;
75593;SDS011;64176;49.156;7.810;2024-01-25T16:13:50;9.20;;;4.00;;
75593;SDS011;64176;49.156;7.810;2024-01-25T16:16:33;5.82;;;2.97;;
75593;SDS011;64176;49.156;7.810;2024-01-25T16:19:17;9.75;;;5.18;;
75593;SDS011;64176;49.156;7.810;2024-01-25T16:22:01;17.10;;;8.00;;
75593;SDS011;64176;49.156;7.810;2024-01-25T16:24:51;10.35;;;5.68;;
75593;SDS011;64176;49.156;7.810;2024-01-25T16:27:37;13.90;;;6.25;;
75593;SDS011;64176;49.156;7.810;2024-01-25T16:30:26;12.65;;;6.95;;
75593;SDS011;64176;49.156;7.810;2024-01-25T16:33:15;10.32;;;4.50;;
75593;SDS011;64176;49.156;7.810;2024-01-25T16:35:59;10.23;;;4.90;;
75593;SDS011;64176;49.156;7.810;2024-01-25T16:38:48;11.50;;;5.90;;
75593;SDS011;64176;49.156;7.810;2024-01-25T16:41:32;7.35;;;3.72;;